sensor_id;sensor_type;location;lat;lon;timestamp;pressure;altitude;pressure_sealevel;temperature;humidity
75359;BME280;64046;51.978;5.934;2023-08-08T00:02:03;101303.53;;;20.11;100.00
75359;BME280;64046;51.978;5.934;2023-08-08T00:04:38;101296.88;;;20.05;100.00
75359;BME280;64046;51.978;5.934;2023-08-08T00:07:08;101292.84;;;19.88;100.00
75359;BME280;64046;51.978;5.934;2023-08-08T00:09:39;101292.34;;;19.83;100.00
75359;BME280;64046;51.978;5.934;2023-08-08T00:12:11;101292.25;;;19.84;100.00
75359;BME280;64046;51.978;5.934;2023-08-08T00:14:42;101292.47;;;19.81;100.00
75359;BME280;64046;51.978;5.934;2023-08-08T00:17:17;101286.22;;;19.94;100.00
75359;BME280;64046;51.978;5.934;2023-08-08T00:19:48;101285.38;;;19.93;100.00
75359;BME280;64046;51.978;5.934;2023-08-08T00:22:18;101279.59;;;19.75;100.00
75359;BME280;64046;51.978;5.934;2023-08-08T00:24:58;101289.50;;;19.97;100.00
75359;BME280;64046;51.978;5.934;2023-08-08T00:27:33;101284.09;;;19.75;100.00
75359;BME280;64046;51.978;5.934;2023-08-08T00:30:11;101287.16;;;19.93;100.00
75359;BME280;64046;51.978;5.934;2023-08-08T00:32:44;101286.34;;;19.92;100.00
75359;BME280;64046;51.978;5.934;2023-08-08T00:35:14;101288.84;;;19.82;100.00
75359;BME280;64046;51.978;5.934;2023-08-08T00:37:47;101277.50;;;19.92;100.00
75359;BME280;64046;51.978;5.934;2023-08-08T00:40:18;101280.25;;;19.79;100.00
75359;BME280;64046;51.978;5.934;2023-08-08T00:42:51;101276.81;;;19.77;100.00
75359;BME280;64046;51.978;5.934;2023-08-08T00:45:23;101281.94;;;19.80;100.00
75359;BME280;64046;51.978;5.934;2023-08-08T00:47:56;101276.28;;;19.96;100.00
75359;BME280;64046;51.978;5.934;2023-08-08T00:50:26;101277.13;;;19.85;100.00
75359;BME280;64046;51.978;5.934;2023-08-08T00:53:02;101270.97;;;19.84;100.00
75359;BME280;64046;51.978;5.934;2023-08-08T00:55:33;101271.81;;;19.85;100.00
75359;BME280;64046;51.978;5.934;2023-08-08T00:58:05;101261.28;;;19.83;100.00
75359;BME280;64046;51.978;5.934;2023-08-08T01:00:40;101265.88;;;19.93;100.00
75359;BME280;64046;51.978;5.934;2023-08-08T01:03:14;101266.53;;;19.96;100.00
75359;BME280;64046;51.978;5.934;2023-08-08T01:05:51;101269.19;;;19.96;100.00
75359;BME280;64046;51.978;5.934;2023-08-08T01:08:44;101272.09;;;20.04;100.00
75359;BME280;64046;51.978;5.934;2023-08-08T01:11:18;101275.81;;;19.91;100.00
75359;BME280;64046;51.978;5.934;2023-08-08T01:13:49;101276.88;;;19.88;100.00
75359;BME280;64046;51.978;5.934;2023-08-08T01:16:24;101279.06;;;19.94;100.00
75359;BME280;64046;51.978;5.934;2023-08-08T01:18:59;101277.41;;;19.93;100.00
75359;BME280;64046;51.978;5.934;2023-08-08T01:21:35;101273.28;;;19.89;100.00
75359;BME280;64046;51.978;5.934;2023-08-08T01:24:18;101270.00;;;19.97;100.00
75359;BME280;64046;51.978;5.934;2023-08-08T01:26:50;101278.66;;;19.76;100.00
75359;BME280;64046;51.978;5.934;2023-08-08T01:29:26;101268.63;;;19.80;100.00
75359;BME280;64046;51.978;5.934;2023-08-08T01:31:56;101252.84;;;19.65;100.00
75359;BME280;64046;51.978;5.934;2023-08-08T01:34:28;101250.31;;;19.64;100.00
75359;BME280;64046;51.978;5.934;2023-08-08T01:37:02;101259.59;;;19.82;100.00
75359;BME280;64046;51.978;5.934;2023-08-08T01:39:38;101257.44;;;19.87;100.00
75359;BME280;64046;51.978;5.934;2023-08-08T01:42:10;101256.09;;;19.82;100.00
75359;BME280;64046;51.978;5.934;2023-08-08T01:44:41;101249.41;;;19.76;100.00
75359;BME280;64046;51.978;5.934;2023-08-08T01:47:14;101255.41;;;19.67;100.00
75359;BME280;64046;51.978;5.934;2023-08-08T01:49:46;101244.16;;;19.63;100.00
75359;BME280;64046;51.978;5.934;2023-08-08T01:52:15;101246.59;;;19.66;100.00
75359;BME280;64046;51.978;5.934;2023-08-08T01:54:47;101245.78;;;19.77;100.00
75359;BME280;64046;51.978;5.934;2023-08-08T01:57:21;101251.00;;;19.79;100.00
75359;BME280;64046;51.978;5.934;2023-08-08T01:59:51;101253.72;;;19.66;100.00
75359;BME280;64046;51.978;5.934;2023-08-08T02:02:23;101240.84;;;19.84;100.00
75359;BME280;64046;51.978;5.934;2023-08-08T02:04:57;101246.47;;;19.68;100.00
75359;BME280;64046;51.978;5.934;2023-08-08T02:07:28;101239.69;;;19.64;100.00
75359;BME280;64046;51.978;5.934;2023-08-08T02:10:12;101238.75;;;19.76;100.00
75359;BME280;64046;51.978;5.934;2023-08-08T02:12:44;101239.91;;;19.61;100.00
75359;BME280;64046;51.978;5.934;2023-08-08T02:15:17;101230.91;;;19.75;100.00
75359;BME280;64046;51.978;5.934;2023-08-08T02:17:50;101222.94;;;19.75;100.00
75359;BME280;64046;51.978;5.934;2023-08-08T02:20:28;101218.75;;;19.83;100.00
75359;BME280;64046;51.978;5.934;2023-08-08T02:22:58;101224.69;;;19.63;100.00
75359;BME280;64046;51.978;5.934;2023-08-08T02:25:31;101209.50;;;19.76;100.00
75359;BME280;64046;51.978;5.934;2023-08-08T02:28:05;101215.53;;;19.67;100.00
75359;BME280;64046;51.978;5.934;2023-08-08T02:30:36;101204.53;;;19.60;100.00
75359;BME280;64046;51.978;5.934;2023-08-08T02:33:11;101209.63;;;19.75;100.00
75359;BME280;64046;51.978;5.934;2023-08-08T02:35:53;101210.44;;;19.64;100.00
75359;BME280;64046;51.978;5.934;2023-08-08T02:38:32;101208.09;;;19.83;100.00
75359;BME280;64046;51.978;5.934;2023-08-08T02:41:12;101208.34;;;19.80;100.00
75359;BME280;64046;51.978;5.934;2023-08-08T02:43:49;101214.94;;;19.75;100.00
75359;BME280;64046;51.978;5.934;2023-08-08T02:46:23;101205.59;;;19.58;100.00
75359;BME280;64046;51.978;5.934;2023-08-08T02:48:57;101214.94;;;19.75;100.00
75359;BME280;64046;51.978;5.934;2023-08-08T02:51:31;101205.47;;;19.59;100.00
75359;BME280;64046;51.978;5.934;2023-08-08T02:54:09;101212.72;;;19.57;100.00
75359;BME280;64046;51.978;5.934;2023-08-08T02:56:48;101200.19;;;19.70;100.00
75359;BME280;64046;51.978;5.934;2023-08-08T02:59:21;101200.53;;;19.54;100.00
75359;BME280;64046;51.978;5.934;2023-08-08T03:01:54;101199.78;;;19.52;100.00
75359;BME280;64046;51.978;5.934;2023-08-08T03:04:24;101196.03;;;19.55;100.00
75359;BME280;64046;51.978;5.934;2023-08-08T03:06:53;101196.28;;;19.52;100.00
75359;BME280;64046;51.978;5.934;2023-08-08T03:09:31;101200.88;;;19.61;100.00
75359;BME280;64046;51.978;5.934;2023-08-08T03:12:08;101207.19;;;19.60;100.00
75359;BME280;64046;51.978;5.934;2023-08-08T03:14:41;101198.59;;;19.57;100.00
75359;BME280;64046;51.978;5.934;2023-08-08T03:17:12;101207.84;;;19.40;100.00
75359;BME280;64046;51.978;5.934;2023-08-08T03:19:44;101196.28;;;19.52;100.00
75359;BME280;64046;51.978;5.934;2023-08-08T03:22:17;101197.13;;;19.52;100.00
75359;BME280;64046;51.978;5.934;2023-08-08T03:24:49;101206.53;;;19.45;100.00
75359;BME280;64046;51.978;5.934;2023-08-08T03:27:25;101211.41;;;19.51;100.00
75359;BME280;64046;51.978;5.934;2023-08-08T03:29:56;101205.13;;;19.28;100.00
75359;BME280;64046;51.978;5.934;2023-08-08T03:32:36;101199.75;;;19.41;100.00
75359;BME280;64046;51.978;5.934;2023-08-08T03:35:14;101195.19;;;19.43;100.00
75359;BME280;64046;51.978;5.934;2023-08-08T03:37:48;101193.66;;;19.28;100.00
75359;BME280;64046;51.978;5.934;2023-08-08T03:40:26;101193.56;;;19.29;100.00
75359;BME280;64046;51.978;5.934;2023-08-08T03:43:01;101182.38;;;19.48;100.00
75359;BME280;64046;51.978;5.934;2023-08-08T03:45:30;101184.00;;;19.27;100.00
75359;BME280;64046;51.978;5.934;2023-08-08T03:48:06;101175.78;;;19.30;100.00
75359;BME280;64046;51.978;5.934;2023-08-08T03:50:41;101180.81;;;19.46;100.00
75359;BME280;64046;51.978;5.934;2023-08-08T03:53:26;101180.69;;;19.47;100.00
75359;BME280;64046;51.978;5.934;2023-08-08T03:56:00;101180.19;;;19.42;100.00
75359;BME280;64046;51.978;5.934;2023-08-08T03:58:33;101176.69;;;19.42;100.00
75359;BME280;64046;51.978;5.934;2023-08-08T04:01:07;101185.75;;;19.39;100.00
75359;BME280;64046;51.978;5.934;2023-08-08T04:03:41;101173.69;;;19.46;100.00
75359;BME280;64046;51.978;5.934;2023-08-08T04:06:12;101177.97;;;19.25;100.00
75359;BME280;64046;51.978;5.934;2023-08-08T04:08:44;101178.81;;;19.25;100.00
75359;BME280;64046;51.978;5.934;2023-08-08T04:11:19;101180.53;;;19.38;100.00
75359;BME280;64046;51.978;5.934;2023-08-08T04:13:54;101174.16;;;19.40;100.00
75359;BME280;64046;51.978;5.934;2023-08-08T04:16:25;101180.50;;;19.26;100.00
75359;BME280;64046;51.978;5.934;2023-08-08T04:18:54;101176.25;;;19.24;100.00
75359;BME280;64046;51.978;5.934;2023-08-08T04:21:29;101173.28;;;19.40;100.00
75359;BME280;64046;51.978;5.934;2023-08-08T04:24:01;101171.50;;;19.40;100.00
75359;BME280;64046;51.978;5.934;2023-08-08T04:26:37;101170.88;;;19.36;100.00
75359;BME280;64046;51.978;5.934;2023-08-08T04:29:11;101164.34;;;19.41;100.00
75359;BME280;64046;51.978;5.934;2023-08-08T04:31:45;101169.91;;;19.38;100.00
75359;BME280;64046;51.978;5.934;2023-08-08T04:34:15;101170.16;;;19.34;100.00
75359;BME280;64046;51.978;5.934;2023-08-08T04:36:52;101164.13;;;19.44;100.00
75359;BME280;64046;51.978;5.934;2023-08-08T04:39:26;101172.28;;;19.29;100.00
75359;BME280;64046;51.978;5.934;2023-08-08T04:41:56;101168.91;;;19.27;100.00
75359;BME280;64046;51.978;5.934;2023-08-08T04:44:27;101167.72;;;19.43;100.00
75359;BME280;64046;51.978;5.934;2023-08-08T04:47:04;101169.06;;;19.48;100.00
75359;BME280;64046;51.978;5.934;2023-08-08T04:49:37;101168.69;;;19.30;100.00
75359;BME280;64046;51.978;5.934;2023-08-08T04:52:11;101170.19;;;19.46;100.00
75359;BME280;64046;51.978;5.934;2023-08-08T04:54:44;101167.84;;;19.41;100.00
75359;BME280;64046;51.978;5.934;2023-08-08T04:57:14;101167.13;;;19.39;100.00
75359;BME280;64046;51.978;5.934;2023-08-08T04:59:48;101171.03;;;19.46;100.00
75359;BME280;64046;51.978;5.934;2023-08-08T05:02:22;101160.88;;;19.40;100.00
75359;BME280;64046;51.978;5.934;2023-08-08T05:04:56;101168.16;;;19.25;100.00
75359;BME280;64046;51.978;5.934;2023-08-08T05:07:29;101158.22;;;19.40;100.00
75359;BME280;64046;51.978;5.934;2023-08-08T05:10:06;101158.06;;;19.30;100.00
75359;BME280;64046;51.978;5.934;2023-08-08T05:12:37;101160.84;;;19.29;100.00
75359;BME280;64046;51.978;5.934;2023-08-08T05:15:16;101158.09;;;19.42;100.00
75359;BME280;64046;51.978;5.934;2023-08-08T05:17:49;101156.94;;;19.22;100.00
75359;BME280;64046;51.978;5.934;2023-08-08T05:20:23;101159.00;;;19.29;100.00
75359;BME280;64046;51.978;5.934;2023-08-08T05:22:55;101157.81;;;19.33;100.00
75359;BME280;64046;51.978;5.934;2023-08-08T05:25:24;101152.25;;;19.36;100.00
75359;BME280;64046;51.978;5.934;2023-08-08T05:27:56;101153.50;;;19.55;100.00
75359;BME280;64046;51.978;5.934;2023-08-08T05:30:33;101160.78;;;19.64;100.00
75359;BME280;64046;51.978;5.934;2023-08-08T05:33:07;101154.38;;;19.67;100.00
75359;BME280;64046;51.978;5.934;2023-08-08T05:35:40;101156.91;;;19.68;100.00
75359;BME280;64046;51.978;5.934;2023-08-08T05:38:11;101151.69;;;19.56;100.00
75359;BME280;64046;51.978;5.934;2023-08-08T05:40:42;101155.81;;;19.60;100.00
75359;BME280;64046;51.978;5.934;2023-08-08T05:43:21;101157.16;;;19.77;100.00
75359;BME280;64046;51.978;5.934;2023-08-08T05:45:53;101162.59;;;19.75;100.00
75359;BME280;64046;51.978;5.934;2023-08-08T05:48:23;101164.41;;;19.63;100.00
75359;BME280;64046;51.978;5.934;2023-08-08T05:50:52;101159.69;;;19.67;100.00
75359;BME280;64046;51.978;5.934;2023-08-08T05:53:24;101164.53;;;19.73;100.00
75359;BME280;64046;51.978;5.934;2023-08-08T05:55:54;101162.78;;;19.85;100.00
75359;BME280;64046;51.978;5.934;2023-08-08T05:58:26;101166.03;;;20.00;100.00
75359;BME280;64046;51.978;5.934;2023-08-08T06:01:05;101164.47;;;19.97;100.00
75359;BME280;64046;51.978;5.934;2023-08-08T06:03:38;101174.63;;;19.92;100.00
75359;BME280;64046;51.978;5.934;2023-08-08T06:06:11;101176.91;;;19.85;100.00
75359;BME280;64046;51.978;5.934;2023-08-08T06:08:41;101173.00;;;19.78;100.00
75359;BME280;64046;51.978;5.934;2023-08-08T06:11:18;101168.22;;;19.83;100.00
75359;BME280;64046;51.978;5.934;2023-08-08T06:14:00;101167.22;;;20.07;100.00
75359;BME280;64046;51.978;5.934;2023-08-08T06:16:34;101176.41;;;20.03;100.00
75359;BME280;64046;51.978;5.934;2023-08-08T06:19:06;101185.13;;;19.94;100.00
75359;BME280;64046;51.978;5.934;2023-08-08T06:21:40;101176.66;;;20.00;100.00
75359;BME280;64046;51.978;5.934;2023-08-08T06:24:11;101182.72;;;20.13;100.00
75359;BME280;64046;51.978;5.934;2023-08-08T06:26:40;101182.38;;;20.18;100.00
75359;BME280;64046;51.978;5.934;2023-08-08T06:29:10;101185.16;;;20.28;100.00
75359;BME280;64046;51.978;5.934;2023-08-08T06:31:48;101195.28;;;20.45;100.00
75359;BME280;64046;51.978;5.934;2023-08-08T06:34:18;101188.75;;;20.27;100.00
75359;BME280;64046;51.978;5.934;2023-08-08T06:36:51;101190.81;;;20.34;100.00
75359;BME280;64046;51.978;5.934;2023-08-08T06:39:22;101199.41;;;20.49;100.00
75359;BME280;64046;51.978;5.934;2023-08-08T06:41:51;101202.31;;;20.35;100.00
75359;BME280;64046;51.978;5.934;2023-08-08T06:44:41;101204.47;;;20.52;100.00
75359;BME280;64046;51.978;5.934;2023-08-08T06:47:17;101207.63;;;20.57;100.00
75359;BME280;64046;51.978;5.934;2023-08-08T06:49:52;101206.50;;;20.71;100.00
75359;BME280;64046;51.978;5.934;2023-08-08T06:52:26;101205.16;;;20.66;100.00
75359;BME280;64046;51.978;5.934;2023-08-08T06:54:55;101201.56;;;20.67;100.00
75359;BME280;64046;51.978;5.934;2023-08-08T06:57:27;101205.06;;;20.67;100.00
75359;BME280;64046;51.978;5.934;2023-08-08T06:59:57;101202.50;;;20.77;100.00
75359;BME280;64046;51.978;5.934;2023-08-08T07:02:33;101202.81;;;20.95;100.00
75359;BME280;64046;51.978;5.934;2023-08-08T07:05:04;101203.88;;;21.04;100.00
75359;BME280;64046;51.978;5.934;2023-08-08T07:07:33;101207.13;;;21.07;100.00
75359;BME280;64046;51.978;5.934;2023-08-08T07:10:05;101208.03;;;21.29;100.00
75359;BME280;64046;51.978;5.934;2023-08-08T07:12:39;101196.97;;;21.34;100.00
75359;BME280;64046;51.978;5.934;2023-08-08T07:15:15;101193.94;;;21.59;98.11
75359;BME280;64046;51.978;5.934;2023-08-08T07:17:48;101188.34;;;21.63;96.80
75359;BME280;64046;51.978;5.934;2023-08-08T07:20:17;101197.88;;;21.44;97.72
75359;BME280;64046;51.978;5.934;2023-08-08T07:22:50;101194.75;;;21.39;97.05
75359;BME280;64046;51.978;5.934;2023-08-08T07:25:23;101199.66;;;21.55;94.71
75359;BME280;64046;51.978;5.934;2023-08-08T07:27:56;101199.09;;;21.51;92.19
75359;BME280;64046;51.978;5.934;2023-08-08T07:30:30;101196.91;;;21.45;90.68
75359;BME280;64046;51.978;5.934;2023-08-08T07:33:05;101195.25;;;21.65;86.44
75359;BME280;64046;51.978;5.934;2023-08-08T07:35:39;101195.31;;;21.75;84.19
75359;BME280;64046;51.978;5.934;2023-08-08T07:38:12;101184.25;;;21.80;82.37
75359;BME280;64046;51.978;5.934;2023-08-08T07:40:42;101185.34;;;21.77;82.14
75359;BME280;64046;51.978;5.934;2023-08-08T07:43:17;101184.19;;;22.01;80.58
75359;BME280;64046;51.978;5.934;2023-08-08T07:45:47;101190.25;;;22.03;79.59
75359;BME280;64046;51.978;5.934;2023-08-08T07:48:22;101186.91;;;22.10;78.11
75359;BME280;64046;51.978;5.934;2023-08-08T07:50:52;101183.50;;;21.77;78.35
75359;BME280;64046;51.978;5.934;2023-08-08T07:53:22;101186.19;;;21.77;78.67
75359;BME280;64046;51.978;5.934;2023-08-08T07:55:53;101187.66;;;21.91;77.75
75359;BME280;64046;51.978;5.934;2023-08-08T07:58:23;101194.66;;;21.83;76.25
75359;BME280;64046;51.978;5.934;2023-08-08T08:00:55;101182.53;;;21.78;74.82
75359;BME280;64046;51.978;5.934;2023-08-08T08:03:30;101185.38;;;22.08;73.22
75359;BME280;64046;51.978;5.934;2023-08-08T08:06:02;101182.94;;;22.05;72.56
75359;BME280;64046;51.978;5.934;2023-08-08T08:08:32;101184.94;;;22.12;71.04
75359;BME280;64046;51.978;5.934;2023-08-08T08:11:04;101183.56;;;22.18;70.07
75359;BME280;64046;51.978;5.934;2023-08-08T08:13:36;101184.38;;;22.40;68.70
75359;BME280;64046;51.978;5.934;2023-08-08T08:16:09;101175.63;;;22.38;67.92
75359;BME280;64046;51.978;5.934;2023-08-08T08:18:41;101175.00;;;22.55;66.80
75359;BME280;64046;51.978;5.934;2023-08-08T08:21:13;101171.84;;;22.40;66.77
75359;BME280;64046;51.978;5.934;2023-08-08T08:23:46;101176.53;;;22.48;65.61
75359;BME280;64046;51.978;5.934;2023-08-08T08:26:17;101174.66;;;22.39;65.73
75359;BME280;64046;51.978;5.934;2023-08-08T08:28:49;101171.63;;;22.63;65.32
75359;BME280;64046;51.978;5.934;2023-08-08T08:31:25;101174.59;;;22.70;63.98
75359;BME280;64046;51.978;5.934;2023-08-08T08:34:00;101175.31;;;22.81;62.36
75359;BME280;64046;51.978;5.934;2023-08-08T08:36:33;101173.06;;;22.77;61.48
75359;BME280;64046;51.978;5.934;2023-08-08T08:39:05;101184.84;;;22.64;61.59
75359;BME280;64046;51.978;5.934;2023-08-08T08:41:40;101188.78;;;22.70;61.71
75359;BME280;64046;51.978;5.934;2023-08-08T08:44:12;101173.06;;;22.77;60.94
75359;BME280;64046;51.978;5.934;2023-08-08T08:46:47;101184.28;;;22.80;60.27
75359;BME280;64046;51.978;5.934;2023-08-08T08:49:24;101191.91;;;22.75;59.95
75359;BME280;64046;51.978;5.934;2023-08-08T08:51:57;101187.09;;;22.69;60.73
75359;BME280;64046;51.978;5.934;2023-08-08T08:54:28;101181.91;;;22.77;59.65
75359;BME280;64046;51.978;5.934;2023-08-08T08:57:01;101178.94;;;22.80;58.96
75359;BME280;64046;51.978;5.934;2023-08-08T08:59:37;101175.59;;;22.88;59.02
75359;BME280;64046;51.978;5.934;2023-08-08T09:02:15;101170.66;;;22.93;58.44
75359;BME280;64046;51.978;5.934;2023-08-08T09:04:48;101174.72;;;22.88;58.46
75359;BME280;64046;51.978;5.934;2023-08-08T09:07:21;101169.53;;;22.96;58.66
75359;BME280;64046;51.978;5.934;2023-08-08T09:09:58;101174.31;;;23.02;57.14
75359;BME280;64046;51.978;5.934;2023-08-08T09:12:30;101183.63;;;22.88;57.93
75359;BME280;64046;51.978;5.934;2023-08-08T09:15:02;101178.81;;;22.82;56.75
75359;BME280;64046;51.978;5.934;2023-08-08T09:17:40;101180.78;;;22.80;56.75
75359;BME280;64046;51.978;5.934;2023-08-08T09:20:13;101184.44;;;22.79;54.83
75359;BME280;64046;51.978;5.934;2023-08-08T09:22:43;101182.84;;;22.67;55.35
75359;BME280;64046;51.978;5.934;2023-08-08T09:25:15;101179.50;;;22.74;54.85
75359;BME280;64046;51.978;5.934;2023-08-08T09:27:49;101182.91;;;22.86;54.75
75359;BME280;64046;51.978;5.934;2023-08-08T09:30:21;101191.91;;;22.75;54.59
75359;BME280;64046;51.978;5.934;2023-08-08T09:32:51;101178.41;;;22.77;53.54
75359;BME280;64046;51.978;5.934;2023-08-08T09:35:34;101183.06;;;22.94;52.67
75359;BME280;64046;51.978;5.934;2023-08-08T09:38:09;101185.03;;;22.83;52.51
75359;BME280;64046;51.978;5.934;2023-08-08T09:40:40;101191.06;;;22.85;52.17
75359;BME280;64046;51.978;5.934;2023-08-08T09:43:11;101194.31;;;22.88;52.50
75359;BME280;64046;51.978;5.934;2023-08-08T09:45:47;101188.53;;;22.83;52.35
75359;BME280;64046;51.978;5.934;2023-08-08T09:48:19;101191.91;;;22.95;52.07
75359;BME280;64046;51.978;5.934;2023-08-08T09:50:52;101200.22;;;23.02;51.57
75359;BME280;64046;51.978;5.934;2023-08-08T09:53:24;101189.78;;;22.89;51.43
75359;BME280;64046;51.978;5.934;2023-08-08T09:55:56;101187.97;;;22.89;50.89
75359;BME280;64046;51.978;5.934;2023-08-08T09:58:31;101185.00;;;23.02;51.04
75359;BME280;64046;51.978;5.934;2023-08-08T10:01:00;101190.09;;;22.95;50.98
75359;BME280;64046;51.978;5.934;2023-08-08T10:03:33;101183.34;;;23.01;50.24
75359;BME280;64046;51.978;5.934;2023-08-08T10:06:07;101186.75;;;23.13;49.68
75359;BME280;64046;51.978;5.934;2023-08-08T10:08:38;101188.56;;;23.12;48.94
75359;BME280;64046;51.978;5.934;2023-08-08T10:11:13;101183.19;;;23.03;49.24
75359;BME280;64046;51.978;5.934;2023-08-08T10:13:50;101192.63;;;23.17;48.97
75359;BME280;64046;51.978;5.934;2023-08-08T10:16:19;101182.78;;;23.07;49.36
75359;BME280;64046;51.978;5.934;2023-08-08T10:18:55;101181.78;;;23.28;49.46
75359;BME280;64046;51.978;5.934;2023-08-08T10:21:28;101187.44;;;23.25;50.18
75359;BME280;64046;51.978;5.934;2023-08-08T10:24:07;101184.47;;;23.18;50.38
75359;BME280;64046;51.978;5.934;2023-08-08T10:26:57;101193.06;;;23.31;49.46
75359;BME280;64046;51.978;5.934;2023-08-08T10:29:30;101193.06;;;23.12;49.74
75359;BME280;64046;51.978;5.934;2023-08-08T10:32:04;101188.56;;;23.22;49.49
75359;BME280;64046;51.978;5.934;2023-08-08T10:34:39;101198.94;;;23.45;49.30
75359;BME280;64046;51.978;5.934;2023-08-08T10:37:15;101199.06;;;23.63;48.29
75359;BME280;64046;51.978;5.934;2023-08-08T10:39:52;101200.19;;;23.60;47.79
75359;BME280;64046;51.978;5.934;2023-08-08T10:42:26;101205.13;;;23.45;48.03
75359;BME280;64046;51.978;5.934;2023-08-08T10:45:02;101197.25;;;23.44;47.82
75359;BME280;64046;51.978;5.934;2023-08-08T10:47:35;101209.06;;;23.51;48.24
75359;BME280;64046;51.978;5.934;2023-08-08T10:50:07;101189.63;;;23.69;47.31
75359;BME280;64046;51.978;5.934;2023-08-08T10:52:59;101201.97;;;23.89;46.33
75359;BME280;64046;51.978;5.934;2023-08-08T10:55:33;101196.78;;;23.68;47.33
75359;BME280;64046;51.978;5.934;2023-08-08T10:58:06;101199.59;;;23.66;47.86
75359;BME280;64046;51.978;5.934;2023-08-08T11:00:44;101195.66;;;23.90;48.00
75359;BME280;64046;51.978;5.934;2023-08-08T11:03:15;101190.00;;;23.93;47.29
75359;BME280;64046;51.978;5.934;2023-08-08T11:05:47;101192.59;;;24.13;46.67
75359;BME280;64046;51.978;5.934;2023-08-08T11:08:19;101199.09;;;24.10;46.34
75359;BME280;64046;51.978;5.934;2023-08-08T11:10:54;101193.06;;;23.98;46.43
75359;BME280;64046;51.978;5.934;2023-08-08T11:13:25;101210.88;;;23.70;47.15
75359;BME280;64046;51.978;5.934;2023-08-08T11:15:59;101192.53;;;23.75;47.03
75359;BME280;64046;51.978;5.934;2023-08-08T11:18:30;101202.72;;;23.62;47.53
75359;BME280;64046;51.978;5.934;2023-08-08T11:21:09;101196.91;;;23.86;47.06
75359;BME280;64046;51.978;5.934;2023-08-08T11:23:47;101194.66;;;23.81;47.01
75359;BME280;64046;51.978;5.934;2023-08-08T11:26:18;101185.78;;;23.71;47.02
75359;BME280;64046;51.978;5.934;2023-08-08T11:28:50;101187.94;;;23.67;47.26
75359;BME280;64046;51.978;5.934;2023-08-08T11:31:20;101186.81;;;23.70;47.54
75359;BME280;64046;51.978;5.934;2023-08-08T11:33:58;101188.59;;;23.79;47.49
75359;BME280;64046;51.978;5.934;2023-08-08T11:36:30;101197.50;;;23.70;47.80
75359;BME280;64046;51.978;5.934;2023-08-08T11:39:05;101196.09;;;23.76;46.34
75359;BME280;64046;51.978;5.934;2023-08-08T11:41:38;101188.38;;;23.63;46.80
75359;BME280;64046;51.978;5.934;2023-08-08T11:44:08;101190.31;;;23.61;46.49
75359;BME280;64046;51.978;5.934;2023-08-08T11:46:51;101187.34;;;23.74;46.53
75359;BME280;64046;51.978;5.934;2023-08-08T11:49:21;101185.84;;;23.61;46.97
75359;BME280;64046;51.978;5.934;2023-08-08T11:51:54;101180.03;;;23.76;46.74
75359;BME280;64046;51.978;5.934;2023-08-08T11:54:30;101175.06;;;23.91;46.51
75359;BME280;64046;51.978;5.934;2023-08-08T11:57:01;101185.75;;;23.81;46.60
75359;BME280;64046;51.978;5.934;2023-08-08T11:59:31;101177.91;;;23.89;46.45
75359;BME280;64046;51.978;5.934;2023-08-08T12:02:01;101181.56;;;23.88;46.21
75359;BME280;64046;51.978;5.934;2023-08-08T12:04:44;101176.56;;;24.03;45.63
75359;BME280;64046;51.978;5.934;2023-08-08T12:07:18;101175.88;;;24.01;45.67
75359;BME280;64046;51.978;5.934;2023-08-08T12:09:55;101172.78;;;24.06;46.40
75359;BME280;64046;51.978;5.934;2023-08-08T12:12:26;101179.09;;;24.05;46.07
75359;BME280;64046;51.978;5.934;2023-08-08T12:15:03;101165.91;;;24.21;45.04
75359;BME280;64046;51.978;5.934;2023-08-08T12:17:33;101173.75;;;24.05;44.86
75359;BME280;64046;51.978;5.934;2023-08-08T12:20:05;101164.28;;;24.10;45.65
75359;BME280;64046;51.978;5.934;2023-08-08T12:22:38;101175.69;;;24.12;45.76
75359;BME280;64046;51.978;5.934;2023-08-08T12:25:13;101158.28;;;24.26;45.94
75359;BME280;64046;51.978;5.934;2023-08-08T12:27:47;101169.72;;;24.18;46.85
75359;BME280;64046;51.978;5.934;2023-08-08T12:30:17;101171.94;;;24.33;46.62
75359;BME280;64046;51.978;5.934;2023-08-08T12:33:02;101162.03;;;24.33;45.22
75359;BME280;64046;51.978;5.934;2023-08-08T12:35:36;101161.84;;;24.17;45.77
75359;BME280;64046;51.978;5.934;2023-08-08T12:38:07;101162.69;;;24.17;45.92
75359;BME280;64046;51.978;5.934;2023-08-08T12:40:42;101167.94;;;24.37;44.97
75359;BME280;64046;51.978;5.934;2023-08-08T12:43:14;101163.22;;;24.21;45.15
75359;BME280;64046;51.978;5.934;2023-08-08T12:45:48;101167.50;;;24.14;45.04
75359;BME280;64046;51.978;5.934;2023-08-08T12:48:21;101166.91;;;24.20;45.46
75359;BME280;64046;51.978;5.934;2023-08-08T12:50:50;101170.97;;;24.24;45.32
75359;BME280;64046;51.978;5.934;2023-08-08T12:53:23;101174.38;;;24.44;45.47
75359;BME280;64046;51.978;5.934;2023-08-08T12:55:56;101177.19;;;24.43;45.30
75359;BME280;64046;51.978;5.934;2023-08-08T12:58:28;101169.31;;;24.41;45.57
75359;BME280;64046;51.978;5.934;2023-08-08T13:00:59;101177.91;;;24.45;45.89
75359;BME280;64046;51.978;5.934;2023-08-08T13:03:39;101176.28;;;24.34;45.42
75359;BME280;64046;51.978;5.934;2023-08-08T13:06:17;101175.59;;;24.32;45.47
75359;BME280;64046;51.978;5.934;2023-08-08T13:08:47;101172.50;;;24.27;44.93
75359;BME280;64046;51.978;5.934;2023-08-08T13:11:26;101185.69;;;24.38;45.25
75359;BME280;64046;51.978;5.934;2023-08-08T13:13:59;101170.53;;;24.29;45.50
75359;BME280;64046;51.978;5.934;2023-08-08T13:16:30;101162.34;;;24.30;45.18
75359;BME280;64046;51.978;5.934;2023-08-08T13:19:03;101168.00;;;24.27;45.49